Map

Track Data

SID SEASON NUMBER BASIN SUBBASIN NAME ISO_TIME NATURE LAT LON WMO_WIND WMO_PRES WMO_AGENCY TRACK_TYPE DIST2LAND LANDFALL IFLAG USA_AGENCY USA_ATCF_ID USA_LAT USA_LON USA_RECORD USA_STATUS USA_WIND USA_PRES USA_SSHS USA_R34_NE USA_R34_SE USA_R34_SW USA_R34_NW USA_R50_NE USA_R50_SE USA_R50_SW USA_R50_NW USA_R64_NE USA_R64_SE USA_R64_SW USA_R64_NW USA_POCI USA_ROCI USA_RMW USA_EYE TOKYO_LAT TOKYO_LON TOKYO_GRADE TOKYO_WIND TOKYO_PRES TOKYO_R50_DIR TOKYO_R50_LONG TOKYO_R50_SHORT TOKYO_R30_DIR TOKYO_R30_LONG TOKYO_R30_SHORT TOKYO_LAND CMA_LAT CMA_LON CMA_CAT CMA_WIND CMA_PRES HKO_LAT HKO_LON HKO_CAT HKO_WIND HKO_PRES NEWDELHI_LAT NEWDELHI_LON NEWDELHI_GRADE NEWDELHI_WIND NEWDELHI_PRES NEWDELHI_CI NEWDELHI_DP NEWDELHI_POCI REUNION_LAT REUNION_LON REUNION_TYPE REUNION_WIND REUNION_PRES REUNION_TNUM REUNION_CI REUNION_RMW REUNION_R34_NE REUNION_R34_SE REUNION_R34_SW REUNION_R34_NW REUNION_R50_NE REUNION_R50_SE REUNION_R50_SW REUNION_R50_NW REUNION_R64_NE REUNION_R64_SE REUNION_R64_SW REUNION_R64_NW BOM_LAT BOM_LON BOM_TYPE BOM_WIND BOM_PRES BOM_TNUM BOM_CI BOM_RMW BOM_R34_NE BOM_R34_SE BOM_R34_SW BOM_R34_NW BOM_R50_NE BOM_R50_SE BOM_R50_SW BOM_R50_NW BOM_R64_NE BOM_R64_SE BOM_R64_SW BOM_R64_NW BOM_ROCI BOM_POCI BOM_EYE BOM_POS_METHOD BOM_PRES_METHOD NADI_LAT NADI_LON NADI_CAT NADI_WIND NADI_PRES WELLINGTON_LAT WELLINGTON_LON WELLINGTON_WIND WELLINGTON_PRES DS824_LAT DS824_LON DS824_STAGE DS824_WIND DS824_PRES TD9636_LAT TD9636_LON TD9636_STAGE TD9636_WIND TD9636_PRES TD9635_LAT TD9635_LON TD9635_WIND TD9635_PRES TD9635_ROCI NEUMANN_LAT NEUMANN_LON NEUMANN_CLASS NEUMANN_WIND NEUMANN_PRES MLC_LAT MLC_LON MLC_CLASS MLC_WIND MLC_PRES USA_GUST BOM_GUST BOM_GUST_PER REUNION_GUST REUNION_GUST_PER USA_SEAHGT USA_SEARAD_NE USA_SEARAD_SE USA_SEARAD_SW USA_SEARAD_NW STORM_SPEED STORM_DIR
1978105N04149 1978 32 WP MM OLIVE 1978-04-15 00:00:00 TS 3.50000 149.000 main 652 646 O________OO___ jtwc_wp WP021978 3.50000 149.000 TD 15 -1 3.50000 149.000 TC 15 3.50000 149.000 1 15 14 286
1978105N04149 1978 32 WP MM OLIVE 1978-04-15 03:00:00 TS 3.70172 148.306 main 657 656 P________PP___ WP021978 3.70011 148.300 TD 15 -1 3.70011 148.300 TC 15 3.70495 148.317 1 15 14 286
1978105N04149 1978 32 WP MM OLIVE 1978-04-15 06:00:00 TS 3.90258 147.609 main 672 672 O________OP___ jtwc_wp WP021978 3.90000 147.600 TD 15 -1 3.90000 147.600 TC 15 3.90773 147.627 1 15 15 286
1978105N04149 1978 32 WP MM OLIVE 1978-04-15 09:00:00 TS 4.10217 146.908 main 694 694 P________PP___ WP021978 4.09994 146.900 TD 15 -1 4.09994 146.900 TC 15 4.10664 146.924 1 15 15 286
1978105N04149 1978 32 WP MM OLIVE 1978-04-15 12:00:00 TS 4.30000 146.200 main 718 718 O________OO___ jtwc_wp WP021978 4.30000 146.200 TD 15 -1 4.30000 146.200 TC 15 4.30000 146.200 1 15 15 286
1978105N04149 1978 32 WP MM OLIVE 1978-04-15 15:00:00 TS 4.50042 145.481 main 749 749 P________PP___ WP021978 4.50745 145.492 TD 15 -1 4.50745 145.492 TC 15 4.48635 145.457 1 15 15 285
1978105N04149 1978 32 WP MM OLIVE 1978-04-15 18:00:00 TS 4.68840 144.777 main 787 787 O________OP___ jtwc_wp WP021978 4.70000 144.800 TD 15 -1 4.70000 144.800 TC 15 4.66521 144.730 1 15 14 284
1978105N04149 1978 32 WP MM OLIVE 1978-04-15 21:00:00 TS 4.85049 144.086 main 832 832 P________PP___ WP021978 4.85752 144.098 TD 15 -1 4.85752 144.098 TC 15 4.83643 144.063 1 15 13 284
1978105N04149 1978 32 WP MM OLIVE 1978-04-16 00:00:00 TS 5.00000 143.500 main 867 867 O________OO___ jtwc_wp WP021978 5.00000 143.500 TD 15 -1 5.00000 143.500 TC 15 5.00000 143.500 1 15 10 287
1978105N04149 1978 32 WP MM OLIVE 1978-04-16 03:00:00 TS 5.15218 143.095 main 900 893 P________PP___ WP021978 5.14991 143.090 TD 15 -1 5.14991 143.090 TC 15 5.15671 143.104 1 16 8 294
1978105N04149 1978 32 WP MM OLIVE 1978-04-16 06:00:00 TS 5.30230 142.803 main 901 899 O________OP___ jtwc_wp WP021978 5.30000 142.800 TD 15 -1 5.30000 142.800 TC 15 5.30690 142.810 1 17 6 299
1978105N04149 1978 32 WP MM OLIVE 1978-04-16 09:00:00 TS 5.45119 142.553 main 918 913 P________PP___ WP021978 5.44995 142.550 TD 17 -1 5.44995 142.550 TC 17 5.45367 142.561 1 18 6 301
1978105N04149 1978 32 WP MM OLIVE 1978-04-16 12:00:00 TS 5.60000 142.300 main 920 916 O________OO___ jtwc_wp WP021978 5.60000 142.300 TD 20 -1 5.60000 142.300 TC 20 5.60000 142.300 1 20 6 297
1978105N04149 1978 32 WP MM OLIVE 1978-04-16 15:00:00 TS 5.74174 141.985 main 917 914 P________PP___ WP021978 5.74999 141.972 TD 20 -1 5.74999 141.972 TC 20 5.72523 142.011 1 21 7 293
1978105N04149 1978 32 WP MM OLIVE 1978-04-16 18:00:00 TS 5.88478 141.631 main 921 917 O________OP___ jtwc_wp WP021978 5.90000 141.600 TD 20 -1 5.90000 141.600 TC 20 5.85433 141.692 1 22 8 292
1978105N04149 1978 32 WP MM OLIVE 1978-04-16 21:00:00 TS 6.02532 141.274 main 918 914 P________PP___ WP021978 6.03484 141.260 TD 22 -1 6.03484 141.260 TC 22 6.00629 141.301 1 23 8 294
1978105N04149 1978 32 WP MM OLIVE 1978-04-17 00:00:00 TS 6.21333 140.887 1006 tokyo main 924 920 OOOO_____OO___ jtwc_wp WP021978 6.20000 140.800 TD 25 -1 6.30000 141.200 2 1006 0 0 0 6.20000 141.200 0 19 1005 6.30000 141.300 TD 25 1005 6.20000 140.800 TC 25 6.20000 140.800 1 25 10 296
1978105N04149 1978 32 WP MM OLIVE 1978-04-17 03:00:00 TS 6.47460 140.343 main 937 934 PPPP_____PP___ WP021978 6.42005 140.110 TD 25 -1 6.74473 141.280 2 1006 0 0 6.43760 140.573 0 19 1004 6.47769 140.560 TD 25 1005 6.42005 140.110 TC 25 6.46558 140.116 1 25 13 295
1978105N04149 1978 32 WP MM OLIVE 1978-04-17 06:00:00 TS 6.75635 139.705 1006 tokyo main 950 937 OOOO_____OP___ jtwc_wp WP021978 6.70000 139.300 TD 25 -1 7.00000 141.000 2 1006 0 0 0 6.70000 139.900 0 19 1004 6.70000 139.800 TD 25 1005 6.70000 139.300 TC 25 6.77086 139.325 1 25 15 292
1978105N04149 1978 32 WP MM OLIVE 1978-04-17 09:00:00 TS 7.02432 138.959 main 939 934 PPPP_____PP___ WP021978 7.04254 138.478 TD 25 -1 6.97787 140.134 2 1006 0 0 6.99998 139.158 0 19 1004 6.99240 139.008 TD 25 1004 7.04254 138.478 TC 25 7.09060 138.497 1 25 17 289
1978105N04149 1978 32 WP MM OLIVE 1978-04-17 12:00:00 TS 7.30000 138.117 1006 tokyo main 938 935 OOOO_____OO___ jtwc_wp WP021978 7.40000 137.700 TD 25 -1 7.00000 139.000 2 1006 0 0 0 7.30000 138.400 0 19 1004 7.30000 138.200 TD 25 1004 7.40000 137.700 TC 25 7.40000 137.700 1 25 17 291
1978105N04149 1978 32 WP MM OLIVE 1978-04-17 15:00:00 TS 7.61694 137.374 main 951 949 PPPP_____PP___ WP021978 7.72224 137.077 TD 25 -1 7.46997 137.971 2 1006 0 0 7.55735 137.692 0 19 1004 7.54989 137.392 TD 25 1004 7.72224 137.077 TC 25 7.67996 137.036 1 26 16 293
1978105N04149 1978 32 WP MM OLIVE 1978-04-17 18:00:00 TS 7.92402 136.669 1006 tokyo main 971 970 OOOO_____OP___ jtwc_wp WP021978 8.00000 136.500 TD 25 -1 8.00000 137.000 2 1006 0 0 0 7.80000 137.000 0 19 1004 7.80000 136.600 TD 25 1004 8.00000 136.500 TC 25 7.94411 136.412 1 27 15 292
1978105N04149 1978 32 WP MM OLIVE 1978-04-17 21:00:00 TS 8.17719 135.965 main 998 961 PPPP_____PP___ WP021978 8.22243 135.857 TD 27 -1 8.25230 136.140 2 1005 0 0 8.06480 136.315 0 24 1003 8.11497 135.813 TD 27 1003 8.22243 135.857 TC 27 8.18624 135.808 1 28 14 289
1978105N04149 1978 32 WP MM OLIVE 1978-04-18 00:00:00 TS 8.38333 135.283 1004 tokyo main 961 896 OOOO_____OO___ jtwc_wp WP021978 8.40000 135.200 TD 30 -1 8.40000 135.400 2 1004 0 0 0 8.30000 135.600 1 29 1003 8.40000 135.100 TD 30 1003 8.40000 135.200 TC 30 8.40000 135.200 1 30 14 286
1978105N04149 1978 32 WP MM OLIVE 1978-04-18 03:00:00 TS 8.54668 134.630 main 886 822 PPPP_____PP___ WP021978 8.55739 134.550 TD 30 -1 8.55722 134.777 2 1003 0 0 8.45747 134.807 1 29 1003 8.57221 134.535 TD 30 1001 8.55739 134.550 TC 30 8.57843 134.561 1 30 13 283
1978105N04149 1978 32 WP MM OLIVE 1978-04-18 06:00:00 TS 8.68826 133.986 1002 tokyo main 822 759 OOOO_____OP___ jtwc_wp WP021978 8.70000 133.900 TD 30 -1 8.70000 134.200 2 1002 0 0 0 8.60000 134.000 1 29 1003 8.70000 134.000 TD 30 1000 8.70000 133.900 TC 30 8.72955 133.915 1 30 13 283
1978105N04149 1978 32 WP MM OLIVE 1978-04-18 09:00:00 TS 8.84423 133.320 main 748 687 PPPP_____PP___ WP021978 8.84989 133.250 TD 30 -1 8.84988 133.565 2 1001 0 0 8.79997 133.213 1 29 1001 8.84988 133.380 TD 30 998 8.84989 133.250 TC 30 8.86589 133.261 1 30 14 283
1978105N04149 1978 32 WP MM OLIVE 1978-04-18 12:00:00 TS 9.00000 132.650 1000 tokyo main 687 614 OOOO_____OO___ jtwc_wp WP021978 9.00000 132.600 TD 30 -1 9.00000 132.900 2 1000 0 0 0 9.00000 132.500 1 29 1000 9.00000 132.700 TD 30 997 9.00000 132.600 TC 30 9.00000 132.600 1 30 13 283
1978105N04149 1978 32 WP MM OLIVE 1978-04-18 15:00:00 TS 9.14723 131.992 main 614 557 PPPP_____PP___ WP021978 9.14984 131.957 TD 32 -1 9.14236 132.215 2 998 0 0 9.14957 131.957 1 33 999 9.15006 131.942 TD 30 997 9.14984 131.957 TC 32 9.14167 131.924 1 32 13 283
1978105N04149 1978 32 WP MM OLIVE 1978-04-18 18:00:00 TS 9.29746 131.324 35 996 tokyo main 547 488 OOOO_____OP___ jtwc_wp WP021978 9.30000 131.300 TS 35 0 9.30000 131.500 3 35 996 0 9 50 50 0 9.30000 131.400 2 38 998 9.30000 131.200 TD 30 997 9.30000 131.300 TC 35 9.28475 131.242 1 35 14 283
1978105N04149 1978 32 WP MM OLIVE 1978-04-18 21:00:00 TS 9.45918 130.623 main 478 416 PPPP_____PP___ WP021978 9.44245 130.600 TS 37 0 9.49234 130.765 3 35 995 0 9 75 75 9.50019 130.615 2 38 996 9.44219 130.592 TD 35 996 9.44245 130.600 TC 37 9.43543 130.564 1 37 14 284
1978105N04149 1978 32 WP MM OLIVE 1978-04-19 00:00:00 TS 9.63333 129.917 35 994 tokyo main 405 346 OOOO_____OO___ jtwc_wp WP021978 9.60000 129.900 TS 40 0 9.70000 130.000 3 35 994 0 9 100 100 0 9.70000 129.800 2 38 995 9.60000 130.000 TS 40 995 9.60000 129.900 TC 40 9.60000 129.900 2 40 14 285
1978105N04149 1978 32 WP MM OLIVE 1978-04-19 03:00:00 TS 9.81924 129.226 main 336 278 PPPP_____PP___ WP021978 9.79237 129.235 TS 42 0 9.90760 129.170 3 40 993 0 9 125 87 9.84969 129.135 2 43 993 9.79249 129.307 TS 40 992 9.79237 129.235 TC 42 9.78093 129.273 2 42 14 286
1978105N04149 1978 32 WP MM OLIVE 1978-04-19 06:00:00 TS 10.0128 128.560 45 992 tokyo main 278 227 OOOO_____OP___ jtwc_wp WP021978 10.0000 128.600 TS 45 0 10.1000 128.400 3 45 992 0 8 150 75 0 10.0000 128.500 3 48 992 10.0000 128.600 TS 40 990 10.0000 128.600 TC 45 9.97661 128.657 2 45 13 287
1978105N04149 1978 32 WP MM OLIVE 1978-04-19 09:00:00 TS 10.2018 127.932 main 217 183 PPPP_____PP___ WP021978 10.1998 128.007 TS 47 0 10.2497 127.812 3 47 991 0 8 150 75 10.1850 127.785 3 48 991 10.1923 127.942 TS 40 990 10.1998 128.007 TC 47 10.1840 128.038 2 47 13 288
1978105N04149 1978 32 WP MM OLIVE 1978-04-19 12:00:00 TS 10.4000 127.317 50 990 tokyo main 174 108 OOOO_____OO___ jtwc_wp WP021978 10.4000 127.400 TS 50 0 10.4000 127.300 4 50 990 0 8 150 75 0 10.4000 127.100 3 48 990 10.4000 127.300 TS 40 990 10.4000 127.400 TC 50 10.4000 127.400 2 50 13 288
1978105N04149 1978 32 WP MM OLIVE 1978-04-19 15:00:00 TS 10.6106 126.684 main 108 39 PPPP_____PP___ WP021978 10.5924 126.715 TS 52 0 10.5848 126.772 4 50 987 0 8 137 100 10.6422 126.535 3 48 989 10.6423 126.657 TS 42 987 10.5924 126.715 TC 52 10.6096 126.709 2 52 13 289
1978105N04149 1978 32 WP MM OLIVE 1978-04-19 18:00:00 TS 10.8379 126.033 50 985 tokyo main 31 0 OOOO_____OP___ jtwc_wp WP021978 10.8000 126.000 TS 55 0 10.8000 126.200 4 50 985 0 9 125 125 0 10.9000 126.000 3 48 988 10.9000 126.000 TS 45 985 10.8000 126.000 TC 55 10.8275 126.000 2 55 14 290
1978105N04149 1978 32 WP MM OLIVE 1978-04-19 21:00:00 TS 11.0794 125.351 main 0 0 PPPP_____PP___ WP021978 11.0424 125.292 TS 57 0 11.0350 125.515 4 50 985 0 9 125 125 11.1499 125.415 3 53 986 11.1499 125.300 TS 47 985 11.0424 125.292 TC 57 11.0565 125.290 2 57 14 290
1978105N04149 1978 32 WP MM OLIVE 1978-04-20 00:00:00 TS 11.3333 124.667 50 985 tokyo main 0 0 OOOO_____OO___ jtwc_wp WP021978 11.3000 124.600 TS 60 0 11.3000 124.800 4 50 985 0 9 125 125 0 11.4000 124.800 3 58 985 11.4000 124.600 STS 50 985 11.3000 124.600 TC 60 11.3000 124.600 2 60 14 291
1978105N04149 1978 32 WP MM OLIVE 1978-04-20 03:00:00 TS 11.5965 124.007 main 15 15 PPPP_____PP___ WP021978 11.5424 123.935 TS 57 0 11.6074 124.135 4 50 985 0 9 125 125 11.6575 124.150 3 58 985 11.6573 123.935 STS 50 985 11.5424 123.935 TC 57 11.5722 123.949 2 56 14 292
1978105N04149 1978 32 WP MM OLIVE 1978-04-20 06:00:00 TS 11.8595 123.370 50 985 tokyo main 24 0 OOOO_____OP___ jtwc_wp WP021978 11.8000 123.300 TS 55 0 11.9000 123.500 4 50 985 0 9 125 125 0 11.9000 123.500 3 58 985 11.9000 123.300 STS 50 985 11.8000 123.300 TC 55 11.8567 123.320 2 52 13 293
1978105N04149 1978 32 WP MM OLIVE 1978-04-20 09:00:00 TS 12.1087 122.764 main 44 44 PPPP_____PP___ WP021978 12.0998 122.692 TS 50 0 12.1073 122.900 4 50 985 0 9 125 125 12.0998 122.900 3 58 985 12.1073 122.692 STS 50 985 12.0998 122.692 TC 50 12.1379 122.706 2 48 13 293
1978105N04149 1978 32 WP MM OLIVE 1978-04-20 12:00:00 TS 12.3500 122.167 50 985 tokyo main 67 0 OOOO_____OO___ jtwc_wp WP021978 12.4000 122.100 TS 45 0 12.3000 122.300 4 50 985 0 9 125 125 0 12.3000 122.300 3 58 985 12.3000 122.100 STS 50 985 12.4000 122.100 TC 45 12.4000 122.100 2 45 13 293
1978105N04149 1978 32 WP MM OLIVE 1978-04-20 15:00:00 TS 12.6014 121.550 main 0 0 PPPP_____PP___ WP021978 12.6724 121.500 TS 45 0 12.5574 121.658 4 47 987 0 9 125 125 12.5648 121.665 3 53 987 12.4998 121.507 STS 50 987 12.6724 121.500 TC 45 12.6417 121.468 2 45 13 291
1978105N04149 1978 32 WP MM OLIVE 1978-04-20 18:00:00 TS 12.8266 120.925 45 990 tokyo main 0 0 OOOO_____OP___ jtwc_wp WP021978 12.9000 120.900 TS 45 0 12.8000 121.000 3 45 990 0 9 125 125 0 12.8000 121.000 3 48 990 12.7000 120.900 STS 50 990 12.9000 120.900 TC 45 12.8599 120.848 2 45 13 288
1978105N04149 1978 32 WP MM OLIVE 1978-04-20 21:00:00 TS 13.0043 120.272 main 31 31 PPPP_____PP___ WP021978 13.0800 120.285 TS 45 0 12.9800 120.320 3 42 993 0 9 112 112 12.9227 120.262 3 48 990 12.9151 120.228 STS 50 992 13.0800 120.285 TC 45 13.0481 120.253 2 45 13 284
1978105N04149 1978 32 WP MM OLIVE 1978-04-21 00:00:00 TS 13.1333 119.667 40 996 tokyo main 73 73 OOOO_____OO___ jtwc_wp WP021978 13.2000 119.700 TS 45 0 13.1000 119.700 3 40 996 0 9 100 100 0 13.0000 119.600 3 48 990 13.1000 119.600 STS 50 995 13.2000 119.700 TC 45 13.2000 119.700 2 45 11 281
1978105N04149 1978 32 WP MM OLIVE 1978-04-21 03:00:00 TS 13.2149 119.173 main 121 121 PPPP_____PP___ WP021978 13.2574 119.170 TS 45 0 13.1497 119.227 3 42 993 0 9 112 87 13.0997 119.155 3 48 989 13.2147 119.120 STS 50 992 13.2574 119.170 TC 45 13.3104 119.194 2 46 9 279
1978105N04149 1978 32 WP MM OLIVE 1978-04-21 06:00:00 TS 13.2811 118.739 45 990 tokyo main 173 173 OOOO_____OP___ jtwc_wp WP021978 13.3000 118.700 TS 45 0 13.2000 118.800 3 45 990 0 7 125 75 0 13.2000 118.800 3 48 988 13.3000 118.700 STS 50 990 13.3000 118.700 TC 45 13.3869 118.732 2 47 9 281
1978105N04149 1978 32 WP MM OLIVE 1978-04-21 09:00:00 TS 13.3787 118.299 main 216 216 PPPP_____PP___ WP021978 13.3999 118.278 TS 47 0 13.3425 118.293 3 47 987 0 7 137 87 13.2924 118.400 3 53 986 13.3925 118.242 STS 52 987 13.3999 118.278 TC 47 13.4449 118.304 2 48 9 284
1978105N04149 1978 32 WP MM OLIVE 1978-04-21 12:00:00 TS 13.4833 117.883 50 985 tokyo main 259 259 OOOO_____OO___ jtwc_wp WP021978 13.5000 117.900 TS 50 0 13.5000 117.800 4 50 985 0 8 150 100 0 13.4000 118.000 3 58 985 13.5000 117.800 STS 55 985 13.5000 117.900 TC 50 13.5000 117.900 2 50 8 284
1978105N04149 1978 32 WP MM OLIVE 1978-04-21 15:00:00 TS 13.5730 117.497 main 303 303 PPPP_____PP___ WP021978 13.5499 117.550 TS 52 0 13.5999 117.377 4 52 982 0 8 150 87 13.5499 117.608 3 58 982 13.6424 117.392 STS 55 985 13.5499 117.550 TC 52 13.5462 117.503 2 52 8 284
1978105N04149 1978 32 WP MM OLIVE 1978-04-21 18:00:00 TS 13.6662 117.121 55 980 tokyo main 346 346 OOOO_____OP___ jtwc_wp WP021978 13.6000 117.200 TS 55 0 13.7000 117.000 4 55 980 9 25 25 8 150 75 0 13.7000 117.200 3 58 980 13.8000 117.000 STS 55 985 13.6000 117.200 TC 55 13.5971 117.127 2 55 8 285
1978105N04149 1978 32 WP MM OLIVE 1978-04-21 21:00:00 TS 13.7690 116.726 main 383 383 PPPP_____PP___ WP021978 13.6775 116.800 TS 57 0 13.8424 116.650 4 57 977 9 27 27 8 150 75 13.8000 116.750 3 58 977 13.9425 116.592 STS 55 982 13.6775 116.800 TC 57 13.6744 116.762 2 57 8 287
1978105N04149 1978 32 WP MM OLIVE 1978-04-22 00:00:00 TS 13.9000 116.333 60 975 tokyo main 421 421 OOOO_____OO___ jtwc_wp WP021978 13.8000 116.400 TS 60 0 14.0000 116.300 4 60 975 9 30 30 8 150 75 0 13.9000 116.300 3 58 975 14.1000 116.200 STS 55 980 13.8000 116.400 TC 60 13.8000 116.400 2 60 8 292
1978105N04149 1978 32 WP MM OLIVE 1978-04-22 03:00:00 TS 14.0638 115.960 main 444 444 PPPP_____PP___ WP021978 13.9699 116.050 TS 62 0 14.1275 115.907 4 62 972 9 30 30 8 125 75 14.0274 115.892 3 63 970 14.2924 115.842 STS 57 975 13.9699 116.050 TC 62 13.9955 116.017 2 62 8 297
1978105N04149 1978 32 WP MM OLIVE 1978-04-22 06:00:00 TS 14.2733 115.589 65 970 tokyo main 478 478 OOOO_____OP___ jtwc_wp WP021978 14.2000 115.700 TY 65 1 14.3000 115.500 5 65 970 9 30 30 8 100 75 0 14.2000 115.500 4 68 965 14.5000 115.500 STS 60 970 14.2000 115.700 TC 65 14.2399 115.635 2 65 9 302
1978105N04149 1978 32 WP MM OLIVE 1978-04-22 09:00:00 TS 14.5353 115.193 main 511 507 PPPP_____PP___ WP021978 14.4925 115.300 TY 67 1 14.5850 115.085 5 67 965 9 30 30 8 100 75 14.4350 115.078 4 68 962 14.6925 115.135 STS 70 965 14.4925 115.300 TC 67 14.5143 115.261 2 67 9 306
1978105N04149 1978 32 WP MM OLIVE 1978-04-22 12:00:00 TS 14.8167 114.817 70 960 tokyo main 542 539 OOOO_____OO___ jtwc_wp WP021978 14.8000 114.900 TY 70 1 14.9000 114.700 5 70 960 9 30 30 8 100 75 0 14.7000 114.700 4 68 960 14.9000 114.800 T 80 960 14.8000 114.900 TC 70 14.8000 114.900 4 70 9 308
1978105N04149 1978 32 WP MM OLIVE 1978-04-22 15:00:00 TS 15.0671 114.495 main 566 550 PPPP_____PP___ WP021978 15.0499 114.535 TY 75 1 15.1649 114.385 5 70 957 9 30 30 8 112 75 14.9348 114.442 4 72 957 15.1349 114.542 T 80 957 15.0499 114.535 TC 75 15.0678 114.528 4 73 8 310
1978105N04149 1978 32 WP MM OLIVE 1978-04-22 18:00:00 TS 15.3238 114.196 70 955 tokyo main 550 508 OOOO_____OP___ jtwc_wp WP021978 15.3000 114.200 TY 80 1 15.4000 114.100 5 70 955 9 30 30 8 125 75 0 15.2000 114.200 4 77 955 15.4000 114.300 T 80 955 15.3000 114.200 TC 80 15.3426 114.175 4 77 8 312
1978105N04149 1978 32 WP MM OLIVE 1978-04-22 21:00:00 TS 15.6094 113.872 main 508 462 PPPP_____PP___ WP021978 15.6000 113.878 TY 82 1 15.5925 113.785 5 70 955 9 30 30 8 125 75 15.5426 113.843 4 82 955 15.7000 113.993 T 80 955 15.6000 113.878 TC 82 15.6210 113.860 4 81 8 314
1978105N04149 1978 32 WP MM OLIVE 1978-04-23 00:00:00 TS 15.9000 113.583 70 955 tokyo main 462 423 OOOO_____OO___ jtwc_wp WP021978 15.9000 113.600 TY 85 2 15.8000 113.500 5 70 955 9 30 30 8 125 75 0 15.9000 113.500 5 87 955 16.0000 113.700 T 80 955 15.9000 113.600 TC 85 15.9000 113.600 4 85 8 318
1978105N04149 1978 32 WP MM OLIVE 1978-04-23 03:00:00 TS 16.1725 113.351 main 423 392 PPPP_____PP___ WP021978 16.1500 113.362 TY 85 2 16.0925 113.263 5 70 955 9 35 35 8 125 100 16.2224 113.262 5 87 955 16.2574 113.477 T 82 955 16.1500 113.362 TC 85 16.1626 113.381 4 85 7 325
1978105N04149 1978 32 WP MM OLIVE 1978-04-23 06:00:00 TS 16.4379 113.187 70 955 tokyo main 392 361 OOOO_____OP___ jtwc_wp WP021978 16.4000 113.200 TY 85 2 16.4000 113.100 5 70 955 9 40 40 9 125 125 0 16.5000 113.100 5 87 955 16.5000 113.300 ST 85 955 16.4000 113.200 TC 85 16.4272 113.223 4 85 6 333
1978105N04149 1978 32 WP MM OLIVE 1978-04-23 09:00:00 TS 16.6905 113.077 main 361 339 PPPP_____PP___ WP021978 16.6850 113.127 TY 85 2 16.6425 113.012 5 70 955 9 40 40 9 125 125 16.6850 112.955 5 87 955 16.7425 113.113 ST 85 955 16.6850 113.127 TC 85 16.7033 113.128 4 85 6 344
1978105N04149 1978 32 WP MM OLIVE 1978-04-23 12:00:00 TS 16.9667 113.033 70 955 tokyo main 332 313 OOOO_____OO___ jtwc_wp WP021978 17.0000 113.100 TY 85 2 16.9000 113.000 5 70 955 9 40 40 9 125 125 0 16.9000 112.900 5 87 955 17.0000 113.000 ST 85 955 17.0000 113.100 TC 85 17.0000 113.100 4 85 6 353
1978105N04149 1978 32 WP MM OLIVE 1978-04-23 15:00:00 TS 17.3011 112.994 main 313 296 PPPP_____PP___ WP021978 17.3425 113.005 TY 85 2 17.2274 112.998 5 70 955 9 40 40 9 137 137 17.2774 112.933 5 87 955 17.2849 112.975 ST 85 955 17.3425 113.005 TC 85 17.3317 113.051 4 85 7 4
1978105N04149 1978 32 WP MM OLIVE 1978-04-23 18:00:00 TS 17.6639 113.063 70 955 tokyo main 300 292 OOOO_____OP___ jtwc_wp WP021978 17.7000 113.000 TY 85 2 17.6000 113.100 5 70 955 9 40 40 9 150 150 0 17.7000 113.100 5 87 955 17.6000 113.100 ST 85 955 17.7000 113.000 TC 85 17.6836 113.076 4 85 8 20
1978105N04149 1978 32 WP MM OLIVE 1978-04-23 21:00:00 TS 18.0264 113.279 main 301 294 PPPP_____PP___ WP021978 18.0498 113.153 TY 85 2 18.0075 113.347 5 70 955 9 57 57 9 150 150 18.0575 113.405 5 87 955 17.9501 113.405 ST 85 955 18.0498 113.153 TC 85 18.0438 113.214 4 85 9 37
1978105N04149 1978 32 WP MM OLIVE 1978-04-24 00:00:00 TS 18.3833 113.633 70 955 tokyo main 304 304 OOOO_____OO___ jtwc_wp WP021978 18.4000 113.500 TY 85 2 18.4000 113.700 5 70 955 9 75 75 9 150 150 0 18.4000 113.800 5 87 955 18.3000 113.800 ST 85 955 18.4000 113.500 TC 85 18.4000 113.500 4 85 10 47
1978105N04149 1978 32 WP MM OLIVE 1978-04-24 03:00:00 TS 18.7220 114.064 main 340 337 PPPP_____PP___ WP021978 18.7576 114.040 TY 85 2 18.7073 114.055 5 70 955 9 87 87 9 150 150 18.7572 114.155 5 87 955 18.6073 114.128 ST 85 955 18.7576 114.040 TC 85 18.7452 113.965 4 85 11 54
1978105N04149 1978 32 WP MM OLIVE 1978-04-24 06:00:00 TS 19.0468 114.596 70 955 tokyo main 364 343 OOOO_____OP___ jtwc_wp WP021978 19.1000 114.700 TY 85 2 19.0000 114.500 5 70 955 9 100 100 9 150 150 0 19.1000 114.600 5 87 955 18.9000 114.500 ST 85 955 19.1000 114.700 TC 85 19.0811 114.577 4 85 13 59
1978105N04149 1978 32 WP MM OLIVE 1978-04-24 09:00:00 TS 19.3672 115.197 main 337 326 PPPP_____PP___ WP021978 19.4149 115.350 TY 85 2 19.3573 115.047 5 75 957 9 87 87 9 150 137 19.4151 115.213 5 82 957 19.1997 114.948 ST 85 957 19.4149 115.350 TC 85 19.4013 115.275 4 85 13 62
1978105N04149 1978 32 WP MM OLIVE 1978-04-24 12:00:00 TS 19.6667 115.850 80 960 tokyo main 329 317 OOOO_____OO___ jtwc_wp WP021978 19.7000 116.000 TY 85 2 19.7000 115.700 5 80 960 9 75 75 4 150 125 0 19.7000 115.900 4 77 960 19.5000 115.500 ST 85 960 19.7000 116.000 TC 85 19.7000 116.000 4 85 13 65
1978105N04149 1978 32 WP MM OLIVE 1978-04-24 15:00:00 TS 19.9304 116.476 main 321 308 PPPP_____PP___ WP021978 19.9570 116.585 TY 82 1 19.9575 116.435 5 75 962 9 75 75 4 150 112 19.9420 116.528 4 77 962 19.7920 116.133 ST 82 962 19.9570 116.585 TC 82 19.9769 116.589 4 82 13 67
1978105N04149 1978 32 WP MM OLIVE 1978-04-24 18:00:00 TS 20.1888 117.150 70 965 tokyo main 310 298 OOOO_____OP___ jtwc_wp WP021978 20.2000 117.200 TY 80 1 20.2000 117.200 5 70 965 9 75 75 4 150 100 0 20.2000 117.200 4 77 965 20.1000 116.900 T 80 965 20.2000 117.200 TC 80 20.2330 117.203 4 80 14 67
1978105N04149 1978 32 WP MM OLIVE 1978-04-24 21:00:00 TS 20.4882 117.875 main 304 240 PPPP_____PP___ WP021978 20.4567 117.875 TY 77 1 20.5214 117.855 5 70 967 9 72 72 4 137 112 20.5570 117.947 4 72 967 20.4649 117.805 T 80 967 20.4567 117.875 TC 77 20.4728 117.889 4 77 16 69
1978105N04149 1978 32 WP MM OLIVE 1978-04-25 00:00:00 TS 20.7667 118.717 70 970 tokyo main 240 144 OOOO_____OO___ jtwc_wp WP021978 20.7000 118.700 TY 75 1 20.8000 118.600 5 70 970 9 70 70 9 125 125 0 20.9000 118.800 4 68 970 20.8000 118.800 T 80 970 20.7000 118.700 TC 75 20.7000 118.700 4 75 18 74
1978105N04149 1978 32 WP MM OLIVE 1978-04-25 03:00:00 TS 20.9720 119.715 main 144 89 PPPP_____PP___ WP021978 20.9075 119.740 TY 72 1 20.9146 119.569 5 70 972 9 60 60 9 112 112 21.1370 119.748 4 68 972 21.0369 119.785 T 77 972 20.9075 119.740 TC 72 20.9284 119.708 4 72 20 79
1978105N04149 1978 32 WP MM OLIVE 1978-04-25 06:00:00 TS 21.1400 120.823 70 975 tokyo main 89 78 OOOO_____OP___ jtwc_wp WP021978 21.1000 120.900 TY 70 1 21.0000 120.700 5 70 975 9 50 50 9 100 100 0 21.3000 120.800 4 68 975 21.2000 120.800 T 75 975 21.1000 120.900 TC 70 21.1400 120.837 4 70 21 81
1978105N04149 1978 32 WP MM OLIVE 1978-04-25 09:00:00 TS 21.3125 121.977 main 132 132 PPPP_____PP___ WP021978 21.3072 122.058 TY 67 1 21.2005 121.957 5 70 975 9 50 50 9 100 100 21.4148 121.935 4 68 977 21.3142 121.828 T 72 977 21.3072 122.058 TC 67 21.3312 122.024 4 67 22 81
1978105N04149 1978 32 WP MM OLIVE 1978-04-25 12:00:00 TS 21.4667 123.133 70 975 tokyo main 231 231 OOOO_____OO___ jtwc_wp WP021978 21.5000 123.200 TY 65 1 21.4000 123.200 5 70 975 9 50 50 9 100 100 0 21.5000 123.100 4 68 980 21.4000 122.900 T 70 980 21.5000 123.200 TC 65 21.5000 123.200 4 65 21 82
1978105N04149 1978 32 WP MM OLIVE 1978-04-25 15:00:00 TS 21.5973 124.219 main 333 333 PPPP_____PP___ WP021978 21.6640 124.265 TY 62 0 21.5139 124.253 5 65 977 9 50 50 9 100 100 21.6069 124.222 4 63 982 21.5069 124.027 T 67 980 21.6640 124.265 TC 62 21.6278 124.278 4 62 20 83
1978105N04149 1978 32 WP MM OLIVE 1978-04-25 18:00:00 TS 21.7065 125.272 60 980 tokyo main 430 430 OOOO_____OP___ jtwc_wp WP021978 21.8000 125.300 TS 60 0 21.6000 125.200 4 60 980 9 50 50 9 100 100 0 21.7000 125.300 3 58 985 21.6000 125.200 T 65 980 21.8000 125.300 TC 60 21.7393 125.333 4 60 20 84
1978105N04149 1978 32 WP MM OLIVE 1978-04-25 21:00:00 TS 21.7870 126.314 main 523 523 PPPP_____PP___ WP021978 21.8918 126.351 TS 57 0 21.7062 126.085 4 57 980 9 50 50 9 100 100 21.7415 126.308 3 58 985 21.6348 126.416 T 60 980 21.8918 126.351 TC 57 21.8561 126.372 4 57 19 85
1978105N04149 1978 32 WP MM OLIVE 1978-04-26 00:00:00 TS 21.8833 127.350 55 980 tokyo main 630 630 OOOO_____OO___ jtwc_wp WP021978 22.0000 127.400 TS 55 0 21.8000 127.000 4 55 980 9 50 50 9 100 100 0 21.8000 127.300 3 58 985 21.7000 127.600 STS 55 980 22.0000 127.400 TC 55 22.0000 127.400 2 55 20 83
1978105N04149 1978 32 WP MM OLIVE 1978-04-26 03:00:00 TS 22.0312 128.412 main 720 720 PPPP_____PP___ WP021978 22.1770 128.458 TS 52 0 21.8429 128.100 4 55 980 9 45 45 9 100 100 21.9198 128.358 3 58 985 21.8839 128.672 STS 52 980 22.1770 128.458 TC 52 22.1865 128.424 2 52 20 81
1978105N04149 1978 32 WP MM OLIVE 1978-04-26 06:00:00 TS 22.2097 129.458 55 980 tokyo main 816 816 OOOO_____OP___ jtwc_wp WP021978 22.4000 129.500 TS 50 0 21.9000 129.200 4 55 980 9 40 40 9 100 100 0 22.1000 129.400 3 58 985 22.1000 129.700 STS 50 980 22.4000 129.500 TC 50 22.4079 129.448 2 50 19 79
1978105N04149 1978 32 WP MM OLIVE 1978-04-26 09:00:00 TS 22.4007 130.454 main 907 907 PPPP_____PP___ WP021978 22.6495 130.522 TS 47 0 22.0187 130.115 4 55 982 9 32 32 9 100 100 22.3339 130.350 3 53 987 22.2268 130.751 STS 47 982 22.6495 130.522 TC 47 22.6504 130.473 2 47 18 78
1978105N04149 1978 32 WP MM OLIVE 1978-04-26 12:00:00 TS 22.5842 131.416 55 985 tokyo main 940 929 OOOO_____OO___ jtwc_wp WP021978 22.9000 131.500 TS 45 0 22.2000 131.000 4 55 985 9 25 25 9 100 100 0 22.6000 131.300 3 48 990 22.4000 131.800 TS 45 985 22.9000 131.500 TC 45 22.9000 131.500 2 45 18 78
1978105N04149 1978 32 WP MM OLIVE 1978-04-26 15:00:00 TS 22.7757 132.406 main 931 926 PPPP_____P____ WP021978 23.1134 132.417 TS 42 0 22.4272 131.985 4 50 987 9 9 100 100 22.8578 132.372 3 48 990 22.7043 132.850 TS 42 987 23.1134 132.417 TC 42 2 19 77
1978105N04149 1978 32 WP MM OLIVE 1978-04-26 18:00:00 TS 23.0077 133.377 45 990 tokyo main 932 927 OOOO_____O____ jtwc_wp WP021978 23.3000 133.300 TD 40 0 22.7000 133.000 3 45 990 0 9 100 100 0 23.1000 133.400 3 48 990 23.1000 133.900 TS 40 990 23.3000 133.300 TC 40 2 18 75
1978105N04149 1978 32 WP MM OLIVE 1978-04-26 21:00:00 TS 23.2396 134.285 main 940 930 _PPP__________ WP021978 TD -1 23.0228 134.059 3 42 992 0 9 75 75 23.3054 134.178 3 43 992 23.5414 134.949 TS 37 990 TC 2 17 74
1978105N04149 1978 32 WP MM OLIVE 1978-04-27 00:00:00 TS 23.4667 135.111 40 994 tokyo main 943 943 _OOO__________ 23.3000 135.000 3 40 994 0 9 50 50 0 23.5000 135.000 2 38 995 24.0000 136.000 TS 35 990 15 78
1978105N04149 1978 32 WP MM OLIVE 1978-04-27 03:00:00 TS 23.5570 135.893 main 972 972 _PP___________ 23.4437 135.646 3 40 995 0 9 50 50 23.6703 136.141 2 38 995 TS 16 81
1978105N04149 1978 32 WP MM OLIVE 1978-04-27 06:00:00 TS 23.7000 136.800 40 996 tokyo main 1010 1010 _OO___________ 23.5000 136.200 3 40 996 0 9 50 50 0 23.9000 137.400 2 38 996 17 78
1978105N04149 1978 32 WP MM OLIVE 1978-04-27 09:00:00 TS 23.9033 137.750 main 1041 1041 _PP___________ 23.5151 136.900 3 40 996 0 9 50 50 24.2916 138.599 2 33 997 18 77
1978105N04149 1978 32 WP MM OLIVE 1978-04-27 12:00:00 TS 24.1000 138.700 40 996 tokyo main 1075 1072 _OO___________ 23.5000 137.600 3 40 996 0 9 50 50 0 24.7000 139.800 1 29 998 17 79
1978105N04149 1978 32 WP MM OLIVE 1978-04-27 15:00:00 TS 24.2244 139.612 main 1091 1091 _PP___________ 23.4996 138.215 3 998 0 9 24.9492 141.009 1 29 999 14 85
1978105N04149 1978 32 WP MM OLIVE 1978-04-27 18:00:00 MX 24.2286 140.257 1000 tokyo main 1116 1116 _OO___________ 23.5000 138.800 2 1000 0 0 0 25.2000 142.200 9 29 1000 10 92
1978105N04149 1978 32 WP MM OLIVE 1978-04-27 21:00:00 MX 24.1881 140.739 main 1131 1131 _PP___________ 23.5001 139.430 2 1002 0 0 25.5641 143.358 9 26 1002 6 111
1978105N04149 1978 32 WP MM OLIVE 1978-04-28 00:00:00 MX 24.0000 140.900 1004 tokyo main 1160 1160 _OO___________ 23.5000 140.000 2 1004 0 0 0 26.0000 144.500 9 23 1004 8 199
1978105N04149 1978 32 WP MM OLIVE 1978-04-28 03:00:00 TS 23.4774 140.475 main 1196 1196 _P____________ 23.4774 140.475 2 1005 0 0 9 5 190
1978105N04149 1978 32 WP MM OLIVE 1978-04-28 06:00:00 TS 23.5000 140.800 1006 tokyo main 1207 1201 _O____________ 23.5000 140.800 2 1006 0 0 0 5 70
1978105N04149 1978 32 WP MM OLIVE 1978-04-28 09:00:00 TS 23.6348 140.960 main 1205 1185 _P____________ 23.6348 140.960 2 1007 0 0 4 31
1978105N04149 1978 32 WP MM OLIVE 1978-04-28 12:00:00 TS 23.8000 141.000 1008 tokyo main 1185 1174 _O____________ 23.8000 141.000 2 1008 0 0 0 3 11
1978105N04149 1978 32 WP MM OLIVE 1978-04-28 15:00:00 TS 23.9150 141.015 main 1174 1164 _P____________ 23.9150 141.015 2 1009 0 0 2 8
1978105N04149 1978 32 WP MM OLIVE 1978-04-28 18:00:00 TS 24.0000 141.000 1010 tokyo main 1164 1154 _O____________ 24.0000 141.000 2 1010 0 0 0 1 357
1978105N04149 1978 32 WP MM OLIVE 1978-04-28 21:00:00 TS 24.0575 141.000 main 1154 1154 _P____________ 24.0575 141.000 2 1011 0 0 1 0
1978105N04149 1978 32 WP MM OLIVE 1978-04-29 00:00:00 TS 24.1000 141.000 1012 tokyo main 1154 1154 _O____________ 24.1000 141.000 2 1012 0 0 0 1 0
1978105N04149 1978 32 WP MM OLIVE 1978-04-29 03:00:00 TS 24.1200 141.000 main 1154 1144 _P____________ 24.1200 141.000 2 1012 0 0 1 0
1978105N04149 1978 32 WP MM OLIVE 1978-04-29 06:00:00 TS 24.2000 141.000 1012 tokyo main 1144 1124 _O____________ 24.2000 141.000 2 1012 0 0 0 3 6
1978105N04149 1978 32 WP MM OLIVE 1978-04-29 09:00:00 TS 24.4349 141.037 main 1124 1094 _P____________ 24.4349 141.037 2 1012 0 0 5 2
1978105N04149 1978 32 WP MM OLIVE 1978-04-29 12:00:00 TS 24.7000 141.000 1012 tokyo main 1094 1065 _O____________ 24.7000 141.000 2 1012 0 0 0 5 333
1978105N04149 1978 32 WP MM OLIVE 1978-04-29 15:00:00 TS 24.8876 140.788 main 1065 1042 _P____________ 24.8876 140.788 2 1012 0 0 5 304
1978105N04149 1978 32 WP MM OLIVE 1978-04-29 18:00:00 TS 25.0000 140.500 1012 tokyo main 1042 1019 _O____________ 25.0000 140.500 2 1012 0 0 0 6 287
1978105N04149 1978 32 WP MM OLIVE 1978-04-29 21:00:00 TS 25.0601 140.175 main 1019 1011 _P____________ 25.0601 140.175 2 1012 0 0 5 270
1978105N04149 1978 32 WP MM OLIVE 1978-04-30 00:00:00 TS 25.0000 140.000 1012 tokyo main 1021 1021 _O____________ 25.0000 140.000 2 1012 0 0 0 3 0
1978105N04149 1978 32 WP MM OLIVE 1978-04-30 03:00:00 TS 24.7126 140.176 main 1060 1060 _P____________ 24.7126 140.176 2 1012 0 0 7 138
1978105N04149 1978 32 WP MM OLIVE 1978-04-30 06:00:00 TS 24.5000 140.500 1012 tokyo main 1093 1085 _O____________ 24.5000 140.500 2 1012 0 0 0 6 94
1978105N04149 1978 32 WP MM OLIVE 1978-04-30 09:00:00 TS 24.6751 140.787 main 1085 1064 _P____________ 24.6751 140.787 2 1012 0 0 7 42
1978105N04149 1978 32 WP MM OLIVE 1978-04-30 12:00:00 TS 25.0000 141.000 1012 tokyo main 1064 1044 _O____________ 25.0000 141.000 2 1012 0 0 0 6 22
1978105N04149 1978 32 WP MM OLIVE 1978-04-30 15:00:00 TS 25.2499 141.038 main 1044 1014 _P____________ 25.2499 141.038 2 1012 0 0 5 2
1978105N04149 1978 32 WP MM OLIVE 1978-04-30 18:00:00 TS 25.5000 141.000 1012 tokyo main 1014 995 _O____________ 25.5000 141.000 2 1012 0 0 0 5 355
1978105N04149 1978 32 WP MM OLIVE 1978-04-30 21:00:00 TS 25.7500 140.987 main 985 965 _P____________ 25.7500 140.987 2 1012 0 0 5 2
1978105N04149 1978 32 WP MM OLIVE 1978-05-01 00:00:00 TS 26.0000 141.000 1012 tokyo main 965 _O____________ 26.0000 141.000 2 1012 0 0 0 5 3

Digital Typhoon Data and Search

About IBTrACS Database

This database is a web-friendly format of International Best Track Archive for Climate Stewardship (IBTrACS), a global best track data archive curated by NOAA dating back to 1842.

Updated: 2021-12-06